createdAt,value
2022-12-04T00:04:45.261Z,91.64
2022-12-04T00:09:48.192Z,91.88
2022-12-04T00:15:24.039Z,92.02
2022-12-04T00:20:12.962Z,91.75
2022-12-04T00:25:15.453Z,91.86
2022-12-04T00:30:18.029Z,92.19
2022-12-04T00:35:20.169Z,91.77
2022-12-04T00:40:24.245Z,92.32
2022-12-04T00:45:26.370Z,91.94
2022-12-04T00:50:28.403Z,91.48
2022-12-04T00:55:30.888Z,92.09
2022-12-04T01:00:32.853Z,91.92
2022-12-04T01:05:43.627Z,92.36
2022-12-04T01:10:45.933Z,92.27
2022-12-04T01:15:51.007Z,92.43
2022-12-04T01:20:53.371Z,92.36
2022-12-04T01:25:57.998Z,91.86
2022-12-04T01:31:02.076Z,91.71
2022-12-04T01:36:06.993Z,91.64
2022-12-04T01:41:10.785Z,91.19
2022-12-04T01:46:12.913Z,90.87
2022-12-04T01:51:26.761Z,90.90
2022-12-04T01:56:34.870Z,90.41
2022-12-04T02:01:43.819Z,89.92
2022-12-04T02:06:46.096Z,90.14
2022-12-04T02:12:35.996Z,89.66
2022-12-04T02:18:09.140Z,89.60
2022-12-04T02:23:27.949Z,89.05
2022-12-04T02:29:01.118Z,88.54
2022-12-04T02:34:09.834Z,88.22
2022-12-04T02:39:43.355Z,88.22
2022-12-04T02:44:49.761Z,88.01
2022-12-04T02:50:04.396Z,87.66
2022-12-04T02:55:11.727Z,87.50
2022-12-04T03:00:14.733Z,87.86
2022-12-04T03:05:21.074Z,87.28
2022-12-04T03:10:36.408Z,87.85
2022-12-04T03:16:04.094Z,87.83
2022-12-04T03:21:17.063Z,87.90
2022-12-04T03:26:27.906Z,88.04
2022-12-04T03:31:41.156Z,87.70
2022-12-04T03:36:50.344Z,87.96
2022-12-04T03:41:56.471Z,87.50
2022-12-04T03:46:59.854Z,87.51
2022-12-04T03:52:17.858Z,87.39
2022-12-04T03:57:23.846Z,87.51
2022-12-04T04:02:29.245Z,87.43
2022-12-04T04:07:44.223Z,87.36
2022-12-04T04:13:17.790Z,87.39
2022-12-04T04:18:38.482Z,87.30
2022-12-04T04:24:05.893Z,87.26
2022-12-04T04:29:09.782Z,87.73
2022-12-04T04:34:30.389Z,87.72
2022-12-04T04:39:48.277Z,87.37
2022-12-04T04:45:10.995Z,87.39
2022-12-04T04:50:14.388Z,87.23
2022-12-04T04:55:18.556Z,87.13
2022-12-04T05:00:22.667Z,87.33
2022-12-04T05:05:24.906Z,87.23
2022-12-04T05:10:26.953Z,86.74
2022-12-04T05:15:29.263Z,86.51
2022-12-04T05:20:31.861Z,87.08
2022-12-04T05:25:34.029Z,86.81
2022-12-04T05:30:36.386Z,86.95
2022-12-04T05:35:38.325Z,86.90
2022-12-04T05:40:40.330Z,86.88
2022-12-04T05:45:42.424Z,86.88
2022-12-04T05:50:44.621Z,86.42
2022-12-04T05:55:57.839Z,86.79
2022-12-04T06:01:00.329Z,86.52
2022-12-04T06:06:02.318Z,86.99
2022-12-04T06:11:13.523Z,86.78
2022-12-04T06:16:24.561Z,87.16
2022-12-04T06:21:29.118Z,86.95
2022-12-04T06:26:31.263Z,86.46
2022-12-04T06:31:36.215Z,86.52
2022-12-04T06:36:38.730Z,86.65
2022-12-04T06:41:41.278Z,86.00
2022-12-04T06:46:46.867Z,86.27
2022-12-04T06:51:49.802Z,86.25
2022-12-04T06:56:51.892Z,85.87
2022-12-04T07:01:54.461Z,85.64
2022-12-04T07:06:58.863Z,85.68
2022-12-04T07:12:00.763Z,85.51
2022-12-04T07:17:02.832Z,85.82
2022-12-04T07:22:07.438Z,85.54
2022-12-04T07:27:09.542Z,85.64
2022-12-04T07:32:11.950Z,85.36
2022-12-04T07:37:14.037Z,85.16
2022-12-04T07:42:19.693Z,85.08
2022-12-04T07:47:25.961Z,85.32
2022-12-04T07:52:28.025Z,84.62
2022-12-04T07:57:29.978Z,85.06
2022-12-04T08:02:31.964Z,85.23
2022-12-04T08:07:34.178Z,85.42
2022-12-04T08:12:36.334Z,84.79
2022-12-04T08:17:38.417Z,85.17
2022-12-04T08:22:40.405Z,85.03
2022-12-04T08:27:47.652Z,85.03
2022-12-04T08:32:49.784Z,84.65
2022-12-04T08:37:52.074Z,84.67
2022-12-04T08:42:54.084Z,83.96
2022-12-04T08:47:56.178Z,84.23
2022-12-04T08:52:58.858Z,83.30
2022-12-04T08:58:02.375Z,82.59
2022-12-04T09:03:04.755Z,82.48
2022-12-04T09:08:10.563Z,82.91
2022-12-04T09:13:13.128Z,83.22
2022-12-04T09:18:15.470Z,82.94
2022-12-04T09:23:17.590Z,83.17
2022-12-04T09:28:20.089Z,82.25
2022-12-04T09:33:22.110Z,82.40
2022-12-04T09:38:24.241Z,82.07
2022-12-04T09:43:35.816Z,81.64
2022-12-04T09:48:40.137Z,81.72
2022-12-04T09:53:47.312Z,80.75
2022-12-04T09:59:11.365Z,81.63
2022-12-04T10:04:14.089Z,80.96
2022-12-04T10:09:36.102Z,81.41
2022-12-04T10:14:49.549Z,81.84
2022-12-04T10:20:04.518Z,81.15
2022-12-04T10:25:12.866Z,81.33
2022-12-04T10:30:20.255Z,80.53
2022-12-04T10:35:25.643Z,80.56
2022-12-04T10:40:40.839Z,80.50
2022-12-04T10:45:43.128Z,80.75
2022-12-04T10:50:47.716Z,81.10
2022-12-04T10:55:49.939Z,82.07
2022-12-04T11:01:07.121Z,85.10
2022-12-04T11:06:10.361Z,86.82
2022-12-04T11:11:14.405Z,87.88
2022-12-04T11:16:35.387Z,87.85
2022-12-04T11:21:38.801Z,88.63
2022-12-04T11:26:42.930Z,87.98
2022-12-04T11:31:58.644Z,88.72
2022-12-04T11:37:04.249Z,90.25
2022-12-04T11:42:15.225Z,92.15
2022-12-04T11:47:19.034Z,93.12
2022-12-04T11:52:54.859Z,93.05
2022-12-04T11:58:05.023Z,92.72
2022-12-04T12:03:14.255Z,92.04
2022-12-04T12:09:00.771Z,91.36
2022-12-04T12:14:14.921Z,90.24
2022-12-04T12:19:56.136Z,91.60
2022-12-04T12:25:16.560Z,89.76
2022-12-04T12:30:21.104Z,90.90
2022-12-04T12:35:29.715Z,89.20
2022-12-04T12:40:35.723Z,90.90
2022-12-04T12:45:43.680Z,89.70
2022-12-04T12:51:08.912Z,90.59
2022-12-04T12:56:13.290Z,90.69
2022-12-04T13:01:24.154Z,89.12
2022-12-04T13:06:33.717Z,89.03
2022-12-04T13:11:40.916Z,87.83
2022-12-04T13:16:49.897Z,89.50
2022-12-04T13:22:13.808Z,89.73
2022-12-04T13:27:19.580Z,89.47
2022-12-04T13:32:30.521Z,90.12
2022-12-04T13:37:47.470Z,90.91
2022-12-04T13:42:49.734Z,89.62
2022-12-04T13:48:03.411Z,90.49
2022-12-04T13:53:06.189Z,89.37
2022-12-04T13:58:11.376Z,91.04
2022-12-04T14:03:48.275Z,90.03
2022-12-04T14:08:55.836Z,90.51
2022-12-04T14:14:03.462Z,90.75
2022-12-04T14:19:09.249Z,89.88
2022-12-04T14:24:38.580Z,89.65
2022-12-04T14:30:15.717Z,90.32
2022-12-04T14:35:18.738Z,91.05
2022-12-04T14:40:26.409Z,91.38
2022-12-04T14:45:57.530Z,92.31
2022-12-04T14:51:15.433Z,93.38
2022-12-04T14:56:48.630Z,92.04
2022-12-04T15:01:52.572Z,91.42
2022-12-04T15:06:59.902Z,92.50
2022-12-04T15:12:35.412Z,92.99
2022-12-04T15:17:37.855Z,94.18
2022-12-04T15:22:40.472Z,94.57
2022-12-04T15:27:43.006Z,92.83
2022-12-04T15:32:46.034Z,94.05
2022-12-04T15:37:48.878Z,93.12
2022-12-04T15:42:51.691Z,93.23
2022-12-04T15:47:54.537Z,92.92
2022-12-04T15:53:14.904Z,93.54
2022-12-04T15:58:31.896Z,93.03
2022-12-04T16:03:43.827Z,92.56
2022-12-04T16:08:48.969Z,93.02
2022-12-04T16:14:13.748Z,92.47
2022-12-04T16:19:26.436Z,92.44
2022-12-04T16:24:29.222Z,92.75
2022-12-04T16:29:31.690Z,93.02
2022-12-04T16:34:35.001Z,93.70
2022-12-04T16:39:41.345Z,94.24
2022-12-04T16:44:43.694Z,93.86
2022-12-04T16:49:48.293Z,93.20
2022-12-04T16:54:54.530Z,93.90
2022-12-04T16:59:57.222Z,94.04
2022-12-04T17:04:59.941Z,94.27
2022-12-04T17:10:02.415Z,94.48
2022-12-04T17:15:05.434Z,95.09
2022-12-04T17:20:13.853Z,95.21
2022-12-04T17:25:17.387Z,95.33
2022-12-04T17:30:19.847Z,94.75
2022-12-04T17:35:21.867Z,94.74
2022-12-04T17:40:24.170Z,94.32
2022-12-04T17:45:26.638Z,95.07
2022-12-04T17:50:28.974Z,95.15
2022-12-04T17:55:34.569Z,95.15
2022-12-04T18:00:37.413Z,95.15
2022-12-04T18:05:47.296Z,95.00
2022-12-04T18:10:49.234Z,95.23
2022-12-04T18:15:51.417Z,95.41
2022-12-04T18:21:09.965Z,96.18
2022-12-04T18:26:19.130Z,95.74
2022-12-04T18:31:22.036Z,96.42
2022-12-04T18:36:27.908Z,97.37
2022-12-04T18:41:35.812Z,97.73
2022-12-04T18:46:46.703Z,97.83
2022-12-04T18:51:50.248Z,97.80
2022-12-04T18:56:52.868Z,97.65
2022-12-04T19:01:56.124Z,97.37
2022-12-04T19:06:58.618Z,97.38
2022-12-04T19:12:01.324Z,97.19
2022-12-04T19:17:03.758Z,96.98
2022-12-04T19:22:06.176Z,97.33
2022-12-04T19:27:12.471Z,97.63
2022-12-04T19:32:14.515Z,97.85
2022-12-04T19:37:17.720Z,97.71
2022-12-04T19:42:19.841Z,97.70
2022-12-04T19:47:22.075Z,97.27
2022-12-04T19:52:31.341Z,97.48
2022-12-04T19:57:33.442Z,97.09
2022-12-04T20:02:35.808Z,97.12
2022-12-04T20:07:38.636Z,97.24
2022-12-04T20:12:40.814Z,98.17
2022-12-04T20:17:52.217Z,97.05
2022-12-04T20:22:54.507Z,96.82
2022-12-04T20:27:56.767Z,97.79
2022-12-04T20:32:58.870Z,97.24
2022-12-04T20:38:01.070Z,97.50
2022-12-04T20:43:03.313Z,98.35
2022-12-04T20:48:06.022Z,98.10
2022-12-04T20:53:08.517Z,98.72
2022-12-04T20:58:11.522Z,99.26
2022-12-04T21:03:13.785Z,99.71
2022-12-04T21:08:36.189Z,98.94
2022-12-04T21:13:57.033Z,99.35
2022-12-04T21:18:59.282Z,99.04
2022-12-04T21:24:02.124Z,99.34
2022-12-04T21:29:05.582Z,99.56
2022-12-04T21:34:09.124Z,99.42
2022-12-04T21:39:11.276Z,99.16
2022-12-04T21:44:16.310Z,99.39
2022-12-04T21:49:19.779Z,99.72
2022-12-04T21:54:22.690Z,99.10
2022-12-04T21:59:25.564Z,99.45
2022-12-04T22:04:27.781Z,98.69
2022-12-04T22:09:29.924Z,99.51
2022-12-04T22:14:32.362Z,99.01
2022-12-04T22:19:34.600Z,99.04
2022-12-04T22:24:39.337Z,98.83
2022-12-04T22:30:02.257Z,99.03
2022-12-04T22:35:05.950Z,98.60
2022-12-04T22:40:08.748Z,98.92
2022-12-04T22:45:11.379Z,98.75
2022-12-04T22:50:13.506Z,98.43
2022-12-04T22:55:22.076Z,98.44
2022-12-04T23:00:24.486Z,98.21
2022-12-04T23:05:29.534Z,98.15
2022-12-04T23:10:32.525Z,98.30
2022-12-04T23:15:39.129Z,98.04
2022-12-04T23:20:41.562Z,98.13
2022-12-04T23:25:43.649Z,98.13
2022-12-04T23:30:47.066Z,98.39
2022-12-04T23:35:53.652Z,97.95
2022-12-04T23:41:07.097Z,98.08
2022-12-04T23:46:11.500Z,98.25
2022-12-04T23:51:17.383Z,98.04
2022-12-04T23:56:25.022Z,97.93
